createdAt,value
2023-01-04T00:01:02.634Z,1.30
2023-01-04T00:03:32.402Z,1.20
2023-01-04T00:06:03.147Z,1.30
2023-01-04T00:08:31.739Z,1.30
2023-01-04T00:11:02.305Z,1.10
2023-01-04T00:13:31.846Z,1.27
2023-01-04T00:16:07.383Z,1.60
2023-01-04T00:18:36.614Z,1.30
2023-01-04T00:21:11.364Z,1.37
2023-01-04T00:23:39.804Z,1.20
2023-01-04T00:26:11.948Z,1.27
2023-01-04T00:28:40.153Z,1.20
2023-01-04T00:31:10.523Z,1.07
2023-01-04T00:33:39.199Z,1.17
2023-01-04T00:36:10.729Z,1.10
2023-01-04T00:38:39.740Z,1.30
2023-01-04T00:41:23.081Z,1.63
2023-01-04T00:43:57.456Z,1.20
2023-01-04T00:46:26.640Z,1.53
2023-01-04T00:49:00.187Z,1.30
2023-01-04T00:51:32.349Z,1.47
2023-01-04T00:54:01.838Z,1.13
2023-01-04T00:56:30.128Z,1.07
2023-01-04T00:58:58.674Z,1.40
2023-01-04T01:01:27.820Z,1.20
2023-01-04T01:03:56.970Z,1.10
2023-01-04T01:06:25.887Z,1.50
2023-01-04T01:08:55.314Z,1.30
2023-01-04T01:11:23.546Z,1.10
2023-01-04T01:13:52.078Z,1.10
2023-01-04T01:16:44.487Z,1.07
2023-01-04T01:19:10.087Z,1.00
2023-01-04T01:21:38.563Z,1.10
2023-01-04T01:24:10.517Z,1.47
2023-01-04T01:26:38.235Z,1.00
2023-01-04T01:29:08.124Z,1.33
2023-01-04T01:31:35.918Z,1.30
2023-01-04T01:34:04.427Z,1.20
2023-01-04T01:36:32.499Z,1.30
2023-01-04T01:39:00.501Z,1.17
2023-01-04T01:41:31.711Z,1.30
2023-01-04T01:44:01.886Z,1.03
2023-01-04T01:46:36.229Z,1.27
2023-01-04T01:49:10.662Z,0.93
2023-01-04T01:51:40.319Z,1.43
2023-01-04T01:54:14.731Z,1.33
2023-01-04T01:56:46.297Z,1.00
2023-01-04T01:59:15.491Z,1.07
2023-01-04T02:01:43.291Z,1.00
2023-01-04T02:04:12.927Z,1.20
2023-01-04T02:06:44.689Z,1.00
2023-01-04T02:09:14.146Z,1.10
2023-01-04T02:11:43.417Z,1.30
2023-01-04T02:14:30.334Z,1.03
2023-01-04T02:17:08.862Z,1.00
2023-01-04T02:20:08.724Z,1.50
2023-01-04T02:22:55.908Z,1.07
2023-01-04T02:26:11.683Z,1.00
2023-01-04T02:29:01.656Z,1.40
2023-01-04T02:31:38.491Z,1.30
2023-01-04T02:34:15.205Z,1.27
2023-01-04T02:36:50.752Z,1.47
2023-01-04T02:39:30.332Z,1.53
2023-01-04T02:42:05.178Z,1.30
2023-01-04T02:44:57.406Z,1.20
2023-01-04T02:47:47.949Z,1.10
2023-01-04T02:50:35.984Z,1.20
2023-01-04T02:53:07.478Z,1.00
2023-01-04T02:55:48.486Z,1.50
2023-01-04T02:58:31.328Z,1.50
2023-01-04T03:01:24.613Z,1.73
2023-01-04T03:04:25.032Z,1.37
2023-01-04T03:07:02.344Z,1.20
2023-01-04T03:09:35.267Z,1.30
2023-01-04T03:12:25.710Z,1.00
2023-01-04T03:15:00.405Z,1.00
2023-01-04T03:17:33.924Z,1.27
2023-01-04T03:20:04.371Z,1.00
2023-01-04T03:22:54.189Z,1.50
2023-01-04T03:25:44.062Z,1.30
2023-01-04T03:28:32.467Z,1.00
2023-01-04T03:31:23.458Z,1.20
2023-01-04T03:34:10.132Z,1.20
2023-01-04T03:36:51.521Z,1.47
2023-01-04T03:39:46.506Z,1.73
2023-01-04T03:42:39.432Z,1.10
2023-01-04T03:45:34.205Z,1.27
2023-01-04T03:48:26.398Z,1.30
2023-01-04T03:50:58.787Z,1.23
2023-01-04T03:53:29.841Z,1.40
2023-01-04T03:56:00.165Z,1.00
2023-01-04T03:58:28.571Z,0.97
2023-01-04T04:01:04.258Z,1.00
2023-01-04T04:03:50.193Z,1.30
2023-01-04T04:06:35.784Z,1.00
2023-01-04T04:09:05.642Z,1.10
2023-01-04T04:11:33.902Z,1.10
2023-01-04T04:14:01.687Z,1.10
2023-01-04T04:16:29.760Z,1.10
2023-01-04T04:18:58.554Z,0.87
2023-01-04T04:21:27.629Z,1.00
2023-01-04T04:23:56.389Z,0.93
2023-01-04T04:26:25.833Z,1.00
2023-01-04T04:28:53.961Z,0.90
2023-01-04T04:31:22.031Z,0.70
2023-01-04T04:33:49.816Z,1.13
2023-01-04T04:36:17.779Z,1.00
2023-01-04T04:38:45.677Z,0.90
2023-01-04T04:41:32.434Z,0.93
2023-01-04T04:44:01.780Z,1.33
2023-01-04T04:46:29.911Z,0.50
2023-01-04T04:48:58.093Z,0.80
2023-01-04T04:51:25.733Z,0.80
2023-01-04T04:53:53.445Z,0.80
2023-01-04T04:56:22.482Z,0.73
2023-01-04T04:58:51.777Z,0.70
2023-01-04T05:01:21.561Z,0.67
2023-01-04T05:03:49.575Z,0.80
2023-01-04T05:06:17.563Z,0.77
2023-01-04T05:08:45.832Z,1.00
2023-01-04T05:11:15.142Z,0.50
2023-01-04T05:13:42.684Z,0.60
2023-01-04T05:16:11.823Z,0.70
2023-01-04T05:18:41.193Z,0.70
2023-01-04T05:21:08.907Z,0.63
2023-01-04T05:23:36.761Z,0.60
2023-01-04T05:26:05.075Z,0.60
2023-01-04T05:28:33.183Z,0.77
2023-01-04T05:30:59.833Z,0.50
2023-01-04T05:33:29.785Z,0.57
2023-01-04T05:36:01.302Z,0.60
2023-01-04T05:38:29.939Z,0.70
2023-01-04T05:40:59.306Z,0.70
2023-01-04T05:43:27.332Z,0.83
2023-01-04T05:45:57.034Z,0.63
2023-01-04T05:48:26.733Z,0.90
2023-01-04T05:50:54.933Z,0.60
2023-01-04T05:53:24.053Z,0.57
2023-01-04T05:55:51.906Z,0.80
2023-01-04T05:58:20.492Z,0.67
2023-01-04T06:00:48.262Z,0.73
2023-01-04T06:03:16.232Z,0.50
2023-01-04T06:05:44.084Z,0.67
2023-01-04T06:08:12.019Z,0.60
2023-01-04T06:10:41.297Z,0.70
2023-01-04T06:13:09.112Z,0.60
2023-01-04T06:15:42.891Z,0.80
2023-01-04T06:18:13.865Z,0.70
2023-01-04T06:20:43.454Z,0.60
2023-01-04T06:23:11.701Z,0.80
2023-01-04T06:25:41.752Z,0.70
2023-01-04T06:28:10.167Z,0.53
2023-01-04T06:30:38.265Z,0.67
2023-01-04T06:33:06.600Z,0.70
2023-01-04T06:35:35.989Z,0.83
2023-01-04T06:38:04.026Z,0.50
2023-01-04T06:40:37.757Z,0.70
2023-01-04T06:43:07.532Z,0.80
2023-01-04T06:45:35.306Z,0.80
2023-01-04T06:48:08.704Z,0.63
2023-01-04T06:50:37.699Z,0.60
2023-01-04T06:53:06.532Z,0.90
2023-01-04T06:55:34.474Z,0.63
2023-01-04T06:58:02.487Z,0.60
2023-01-04T07:00:32.628Z,0.80
2023-01-04T07:03:14.465Z,0.80
2023-01-04T07:05:43.884Z,0.77
2023-01-04T07:08:12.581Z,0.83
2023-01-04T07:10:41.936Z,0.80
2023-01-04T07:13:10.073Z,0.70
2023-01-04T07:15:40.832Z,0.50
2023-01-04T07:18:09.584Z,0.50
2023-01-04T07:20:37.458Z,0.70
2023-01-04T07:23:05.865Z,1.20
2023-01-04T07:25:33.602Z,0.70
2023-01-04T07:28:01.828Z,0.70
2023-01-04T07:30:29.996Z,0.70
2023-01-04T07:32:59.704Z,0.60
2023-01-04T07:35:27.655Z,0.67
2023-01-04T07:37:59.155Z,0.63
2023-01-04T07:40:28.724Z,0.50
2023-01-04T07:43:01.851Z,0.70
2023-01-04T07:45:29.735Z,0.67
2023-01-04T07:48:00.782Z,0.60
2023-01-04T07:50:29.791Z,0.60
2023-01-04T07:52:57.625Z,0.60
2023-01-04T07:55:26.025Z,0.60
2023-01-04T07:58:01.317Z,0.67
2023-01-04T08:00:30.122Z,0.70
2023-01-04T08:02:57.968Z,0.80
2023-01-04T08:05:27.592Z,0.70
2023-01-04T08:07:56.365Z,0.83
2023-01-04T08:10:24.844Z,0.70
2023-01-04T08:12:55.207Z,0.90
2023-01-04T08:15:23.033Z,0.70
2023-01-04T08:17:51.135Z,0.70
2023-01-04T08:20:22.707Z,0.70
2023-01-04T08:22:52.103Z,1.00
2023-01-04T08:25:20.453Z,0.80
2023-01-04T08:27:48.173Z,0.60
2023-01-04T08:30:16.215Z,0.80
2023-01-04T08:32:45.683Z,0.70
2023-01-04T08:35:14.276Z,0.87
2023-01-04T08:37:42.004Z,1.00
2023-01-04T08:40:13.914Z,0.90
2023-01-04T08:42:42.115Z,0.80
2023-01-04T08:45:10.660Z,0.70
2023-01-04T08:47:38.482Z,0.87
2023-01-04T08:50:10.720Z,0.70
2023-01-04T08:52:39.492Z,0.67
2023-01-04T08:55:12.666Z,0.60
2023-01-04T08:57:46.078Z,0.70
2023-01-04T09:00:15.816Z,0.50
2023-01-04T09:02:43.906Z,0.70
2023-01-04T09:05:22.688Z,0.60
2023-01-04T09:07:52.078Z,0.63
2023-01-04T09:10:19.905Z,0.60
2023-01-04T09:12:49.134Z,0.60
2023-01-04T09:15:19.187Z,0.60
2023-01-04T09:18:20.470Z,0.50
2023-01-04T09:20:35.125Z,0.57
2023-01-04T09:23:02.760Z,0.70
2023-01-04T09:25:30.885Z,0.70
2023-01-04T09:28:00.150Z,0.67
2023-01-04T09:30:29.487Z,0.60
2023-01-04T09:32:57.165Z,0.70
2023-01-04T09:35:25.105Z,0.73
2023-01-04T09:37:53.339Z,0.60
2023-01-04T09:40:23.946Z,0.47
2023-01-04T09:43:20.204Z,0.73
2023-01-04T09:45:42.929Z,0.60
2023-01-04T09:48:18.910Z,0.73
2023-01-04T09:50:55.787Z,0.77
2023-01-04T09:53:28.377Z,0.70
2023-01-04T09:56:00.302Z,0.90
2023-01-04T09:58:30.952Z,0.70
2023-01-04T10:01:04.991Z,0.70
2023-01-04T10:03:35.491Z,0.70
2023-01-04T10:06:04.632Z,0.77
2023-01-04T10:08:32.915Z,1.10
2023-01-04T10:11:10.928Z,1.07
2023-01-04T10:13:59.554Z,0.93
2023-01-04T10:17:12.139Z,0.80
2023-01-04T10:22:41.375Z,1.10
2023-01-04T10:25:24.845Z,1.00
2023-01-04T10:28:01.581Z,0.80
2023-01-04T10:30:36.629Z,1.00
2023-01-04T10:33:12.840Z,0.90
2023-01-04T10:35:45.124Z,0.73
2023-01-04T10:38:19.604Z,0.80
2023-01-04T10:40:50.369Z,0.87
2023-01-04T10:43:29.031Z,0.90
2023-01-04T10:46:03.620Z,0.70
2023-01-04T10:48:41.850Z,0.70
2023-01-04T10:51:10.908Z,0.80
2023-01-04T10:53:45.775Z,0.80
2023-01-04T10:56:24.168Z,0.67
2023-01-04T10:59:01.465Z,0.70
2023-01-04T11:01:35.065Z,0.63
2023-01-04T11:04:11.467Z,0.90
2023-01-04T11:06:43.490Z,0.80
2023-01-04T11:09:24.589Z,0.90
2023-01-04T11:11:56.112Z,0.80
2023-01-04T11:14:25.553Z,0.80
2023-01-04T11:17:00.553Z,0.70
2023-01-04T11:19:30.893Z,1.00
2023-01-04T11:22:03.271Z,0.80
2023-01-04T11:24:33.539Z,0.80
2023-01-04T11:27:07.028Z,0.70
2023-01-04T11:29:41.776Z,0.70
2023-01-04T11:32:17.484Z,0.90
2023-01-04T11:34:49.408Z,0.80
2023-01-04T11:37:26.717Z,1.20
2023-01-04T11:40:15.048Z,0.80
2023-01-04T11:42:43.345Z,0.90
2023-01-04T11:45:25.798Z,1.17
2023-01-04T11:47:55.449Z,0.80
2023-01-04T11:50:41.676Z,0.80
2023-01-04T11:53:30.139Z,0.97
2023-01-04T11:56:12.065Z,0.87
2023-01-04T11:58:40.349Z,1.00
2023-01-04T12:01:21.135Z,0.90
2023-01-04T12:03:49.203Z,1.00
2023-01-04T12:06:21.786Z,0.90
2023-01-04T12:08:50.219Z,1.00
2023-01-04T12:11:26.559Z,1.00
2023-01-04T12:13:54.509Z,0.90
2023-01-04T12:16:44.933Z,1.00
2023-01-04T12:19:16.762Z,1.33
2023-01-04T12:21:50.759Z,1.30
2023-01-04T12:24:23.129Z,1.30
2023-01-04T12:26:52.420Z,1.57
2023-01-04T12:29:43.965Z,0.90
2023-01-04T12:32:45.967Z,1.27
2023-01-04T12:36:06.697Z,1.10
2023-01-04T12:39:14.333Z,1.30
2023-01-04T12:42:27.002Z,0.97
2023-01-04T12:45:17.028Z,1.00
2023-01-04T12:48:11.950Z,0.90
2023-01-04T12:51:33.569Z,1.13
2023-01-04T12:54:04.542Z,1.00
2023-01-04T12:57:12.078Z,1.20
2023-01-04T12:59:55.626Z,1.27
2023-01-04T13:02:25.493Z,1.30
2023-01-04T13:05:25.638Z,1.10
2023-01-04T13:07:46.930Z,0.97
2023-01-04T13:10:22.651Z,1.00
2023-01-04T13:13:02.706Z,1.00
2023-01-04T13:15:45.971Z,1.00
2023-01-04T13:18:33.359Z,1.07
2023-01-04T13:21:02.539Z,1.23
2023-01-04T13:23:31.418Z,1.10
2023-01-04T13:26:29.848Z,2.13
2023-01-04T13:29:17.195Z,1.77
2023-01-04T13:31:57.017Z,1.30
2023-01-04T13:34:27.816Z,1.30
2023-01-04T13:37:00.113Z,1.27
2023-01-04T13:39:28.406Z,1.27
2023-01-04T13:41:58.151Z,1.13
2023-01-04T13:45:09.178Z,0.90
2023-01-04T13:47:31.010Z,1.00
2023-01-04T13:49:59.279Z,0.90
2023-01-04T13:52:56.418Z,1.00
2023-01-04T13:55:22.586Z,0.90
2023-01-04T13:57:56.370Z,1.33
2023-01-04T14:00:28.672Z,0.90
2023-01-04T14:03:13.807Z,1.00
2023-01-04T14:05:47.628Z,1.00
2023-01-04T14:08:21.471Z,0.87
2023-01-04T14:10:51.221Z,0.80
2023-01-04T14:13:21.206Z,0.90
2023-01-04T14:15:48.895Z,0.80
2023-01-04T14:18:29.818Z,0.90
2023-01-04T14:20:57.798Z,1.00
2023-01-04T14:23:28.552Z,1.20
2023-01-04T14:25:59.647Z,1.03
2023-01-04T14:28:41.866Z,1.10
2023-01-04T14:31:22.562Z,1.10
2023-01-04T14:33:54.391Z,1.10
2023-01-04T14:36:26.876Z,0.90
2023-01-04T14:39:20.504Z,1.10
2023-01-04T14:41:59.753Z,1.03
2023-01-04T14:44:30.970Z,1.10
2023-01-04T14:47:01.530Z,1.20
2023-01-04T14:49:31.639Z,1.30
2023-01-04T14:52:01.098Z,1.30
2023-01-04T14:54:33.463Z,1.30
2023-01-04T14:57:01.402Z,1.20
2023-01-04T14:59:29.136Z,1.23
2023-01-04T15:01:58.806Z,1.40
2023-01-04T15:04:26.670Z,1.30
2023-01-04T15:06:58.463Z,1.10
2023-01-04T15:09:27.143Z,1.23
2023-01-04T15:11:55.638Z,1.50
2023-01-04T15:14:23.703Z,1.40
2023-01-04T15:16:51.520Z,1.30
2023-01-04T15:19:19.340Z,1.30
2023-01-04T15:21:47.364Z,1.30
2023-01-04T15:24:16.964Z,1.53
2023-01-04T15:26:44.728Z,1.40
2023-01-04T15:29:13.606Z,1.30
2023-01-04T15:31:43.867Z,1.40
2023-01-04T15:34:11.747Z,1.50
2023-01-04T15:36:41.803Z,1.10
2023-01-04T15:39:13.642Z,1.17
2023-01-04T15:42:00.704Z,1.30
2023-01-04T15:44:28.373Z,1.50
2023-01-04T15:46:56.579Z,1.50
2023-01-04T15:49:25.283Z,1.50
2023-01-04T15:51:52.967Z,1.40
2023-01-04T15:54:21.864Z,1.60
2023-01-04T15:56:51.106Z,1.47
2023-01-04T15:59:19.162Z,1.40
2023-01-04T16:01:47.883Z,1.57
2023-01-04T16:04:15.788Z,2.10
2023-01-04T16:06:44.915Z,1.67
2023-01-04T16:09:13.657Z,2.07
2023-01-04T16:12:02.124Z,2.30
2023-01-04T16:14:31.454Z,1.90
2023-01-04T16:16:59.278Z,2.33
2023-01-04T16:19:27.732Z,2.13
2023-01-04T16:21:56.741Z,2.03
2023-01-04T16:27:12.522Z,1.80
2023-01-04T16:29:41.821Z,2.10
2023-01-04T16:32:09.584Z,2.17
2023-01-04T16:34:37.344Z,2.00
2023-01-04T16:37:05.340Z,1.70
2023-01-04T16:40:05.405Z,1.53
2023-01-04T16:42:21.504Z,1.60
2023-01-04T16:44:51.398Z,1.30
2023-01-04T16:47:19.212Z,1.50
2023-01-04T16:49:52.143Z,1.30
2023-01-04T16:52:20.292Z,1.50
2023-01-04T16:54:48.277Z,1.50
2023-01-04T16:57:16.123Z,1.90
2023-01-04T16:59:43.910Z,1.40
2023-01-04T17:02:13.492Z,1.90
2023-01-04T17:04:41.273Z,1.50
2023-01-04T17:07:09.971Z,1.87
2023-01-04T17:09:42.752Z,1.60
2023-01-04T17:17:51.710Z,1.50
2023-01-04T17:20:19.738Z,1.90
2023-01-04T17:22:47.742Z,1.77
2023-01-04T17:25:17.190Z,1.87
2023-01-04T17:27:45.013Z,2.00
2023-01-04T17:30:13.995Z,2.50
2023-01-04T17:32:42.354Z,1.93
2023-01-04T17:35:11.496Z,2.10
2023-01-04T17:37:39.326Z,2.07
2023-01-04T17:40:07.942Z,2.60
2023-01-04T17:42:35.949Z,2.57
2023-01-04T17:45:03.706Z,2.43
2023-01-04T17:47:31.546Z,2.50
2023-01-04T17:49:59.582Z,2.73
2023-01-04T17:52:31.591Z,2.07
2023-01-04T17:55:00.097Z,2.90
2023-01-04T17:57:29.907Z,2.40
2023-01-04T17:59:57.844Z,2.27
2023-01-04T18:02:25.842Z,2.33
2023-01-04T18:04:53.628Z,2.80
2023-01-04T18:07:25.334Z,2.77
2023-01-04T18:09:54.988Z,2.13
2023-01-04T18:12:22.947Z,2.60
2023-01-04T18:14:50.819Z,2.50
2023-01-04T18:17:18.889Z,2.37
2023-01-04T18:19:46.889Z,2.20
2023-01-04T18:22:14.582Z,2.50
2023-01-04T18:24:42.637Z,2.80
2023-01-04T18:27:23.074Z,2.20
2023-01-04T18:29:52.534Z,2.30
2023-01-04T18:32:20.526Z,2.70
2023-01-04T18:34:48.213Z,2.30
2023-01-04T18:37:18.342Z,2.13
2023-01-04T18:39:48.188Z,2.57
2023-01-04T18:42:19.151Z,3.13
2023-01-04T18:44:49.508Z,3.00
2023-01-04T18:47:18.481Z,2.63
2023-01-04T18:49:46.596Z,3.33
2023-01-04T18:52:14.405Z,2.90
2023-01-04T18:54:43.087Z,2.50
2023-01-04T18:57:11.434Z,2.60
2023-01-04T18:59:41.432Z,2.60
2023-01-04T19:02:11.463Z,2.23
2023-01-04T19:04:39.482Z,2.60
2023-01-04T19:07:07.652Z,2.50
2023-01-04T19:09:35.556Z,3.10
2023-01-04T19:12:03.265Z,2.30
2023-01-04T19:14:31.339Z,3.27
2023-01-04T19:17:01.590Z,2.43
2023-01-04T19:19:30.580Z,2.40
2023-01-04T19:21:58.363Z,2.70
2023-01-04T19:24:26.099Z,2.60
2023-01-04T19:26:55.053Z,2.40
2023-01-04T19:29:24.101Z,2.90
2023-01-04T19:31:51.997Z,2.50
2023-01-04T19:34:21.221Z,2.63
2023-01-04T19:36:49.081Z,2.97
2023-01-04T19:39:16.910Z,2.90
2023-01-04T19:41:44.734Z,2.27
2023-01-04T19:44:13.324Z,2.70
2023-01-04T19:46:42.291Z,2.83
2023-01-04T19:49:15.161Z,3.03
2023-01-04T19:51:47.250Z,2.90
2023-01-04T19:54:19.866Z,2.40
2023-01-04T19:56:49.477Z,2.53
2023-01-04T19:59:17.936Z,2.40
2023-01-04T20:01:45.765Z,2.60
2023-01-04T20:04:14.062Z,3.13
2023-01-04T20:06:43.203Z,2.40
2023-01-04T20:09:12.358Z,2.73
2023-01-04T20:11:40.202Z,2.40
2023-01-04T20:14:08.012Z,2.47
2023-01-04T20:16:36.137Z,2.63
2023-01-04T20:19:04.011Z,2.50
2023-01-04T20:21:31.869Z,2.93
2023-01-04T20:24:01.387Z,7.53
2023-01-04T20:26:30.625Z,4.47
2023-01-04T20:28:58.705Z,3.00
2023-01-04T20:31:26.460Z,3.50
2023-01-04T20:33:54.271Z,3.67
2023-01-04T20:36:26.968Z,3.73
2023-01-04T20:38:55.623Z,3.63
2023-01-04T20:41:25.656Z,3.70
2023-01-04T20:43:54.001Z,4.40
2023-01-04T20:46:24.989Z,4.27
2023-01-04T20:48:52.917Z,4.10
2023-01-04T20:51:22.719Z,5.30
2023-01-04T20:53:51.591Z,4.87
2023-01-04T20:56:21.422Z,5.70
2023-01-04T20:58:49.854Z,4.90
2023-01-04T21:01:20.799Z,5.00
2023-01-04T21:03:49.581Z,5.10
2023-01-04T21:06:19.164Z,4.10
2023-01-04T21:08:47.903Z,4.87
2023-01-04T21:11:16.107Z,3.90
2023-01-04T21:13:43.939Z,4.63
2023-01-04T21:16:12.801Z,5.93
2023-01-04T21:18:43.280Z,4.40
2023-01-04T21:21:15.018Z,4.30
2023-01-04T21:23:44.940Z,3.90
2023-01-04T21:26:17.135Z,4.37
2023-01-04T21:28:45.506Z,3.30
2023-01-04T21:31:16.740Z,3.83
2023-01-04T21:33:47.139Z,3.30
2023-01-04T21:36:17.432Z,2.90
2023-01-04T21:38:45.517Z,2.93
2023-01-04T21:41:15.928Z,5.50
2023-01-04T21:43:45.452Z,4.67
2023-01-04T21:46:15.631Z,3.80
2023-01-04T21:48:44.206Z,4.53
2023-01-04T21:51:15.134Z,4.23
2023-01-04T21:53:42.802Z,4.40
2023-01-04T21:56:13.452Z,4.43
2023-01-04T21:58:41.888Z,3.93
2023-01-04T22:01:10.812Z,4.17
2023-01-04T22:03:39.203Z,4.40
2023-01-04T22:06:08.098Z,5.10
2023-01-04T22:08:37.396Z,4.97
2023-01-04T22:11:05.591Z,4.97
2023-01-04T22:13:34.460Z,4.87
2023-01-04T22:16:06.526Z,4.73
2023-01-04T22:18:34.616Z,4.17
2023-01-04T22:21:04.564Z,4.83
2023-01-04T22:23:33.067Z,5.97
2023-01-04T22:26:02.614Z,4.93
2023-01-04T22:28:36.469Z,5.80
2023-01-04T22:31:07.053Z,5.33
2023-01-04T22:33:36.743Z,4.33
2023-01-04T22:36:07.701Z,5.10
2023-01-04T22:38:36.408Z,4.80
2023-01-04T22:41:09.130Z,4.83
2023-01-04T22:43:37.840Z,5.63
2023-01-04T22:46:08.085Z,6.30
2023-01-04T22:48:36.167Z,5.40
2023-01-04T22:51:07.432Z,4.60
2023-01-04T22:53:35.674Z,5.17
2023-01-04T22:56:23.530Z,5.40
2023-01-04T22:58:54.651Z,4.50
2023-01-04T23:01:23.904Z,6.20
2023-01-04T23:03:52.916Z,6.40
2023-01-04T23:06:21.482Z,5.30
2023-01-04T23:08:49.745Z,5.17
2023-01-04T23:11:20.148Z,5.97
2023-01-04T23:13:51.122Z,4.40
2023-01-04T23:16:19.336Z,5.13
2023-01-04T23:18:47.347Z,6.50
2023-01-04T23:21:15.805Z,8.03
2023-01-04T23:23:43.898Z,10.50
2023-01-04T23:26:14.983Z,5.80
2023-01-04T23:28:47.709Z,4.50
2023-01-04T23:31:17.894Z,6.20
2023-01-04T23:33:45.863Z,5.73
2023-01-04T23:36:16.066Z,4.37
2023-01-04T23:38:45.431Z,4.67
2023-01-04T23:41:13.156Z,5.77
2023-01-04T23:43:41.208Z,5.20
2023-01-04T23:46:13.718Z,5.53
2023-01-04T23:48:42.101Z,5.53
2023-01-04T23:51:10.209Z,5.13
2023-01-04T23:53:42.316Z,4.90
2023-01-04T23:56:16.164Z,4.23
2023-01-04T23:58:44.451Z,5.13
